sensor_id;sensor_type;location;lat;lon;timestamp;temperature;humidity
14786;DHT22;7484;49.906;9.058;2023-04-28T00:00:31;12.60;99.90
14786;DHT22;7484;49.906;9.058;2023-04-28T00:02:57;12.60;99.90
14786;DHT22;7484;49.906;9.058;2023-04-28T00:05:24;12.50;99.90
14786;DHT22;7484;49.906;9.058;2023-04-28T00:07:51;12.50;99.90
14786;DHT22;7484;49.906;9.058;2023-04-28T00:10:18;12.50;99.90
14786;DHT22;7484;49.906;9.058;2023-04-28T00:12:46;12.50;99.90
14786;DHT22;7484;49.906;9.058;2023-04-28T00:15:13;12.30;99.90
14786;DHT22;7484;49.906;9.058;2023-04-28T00:17:40;12.20;99.90
14786;DHT22;7484;49.906;9.058;2023-04-28T00:20:08;12.10;99.90
14786;DHT22;7484;49.906;9.058;2023-04-28T00:22:35;12.10;99.90
14786;DHT22;7484;49.906;9.058;2023-04-28T00:25:02;12.00;99.90
14786;DHT22;7484;49.906;9.058;2023-04-28T00:27:29;12.00;99.90
14786;DHT22;7484;49.906;9.058;2023-04-28T00:29:57;12.00;99.90
14786;DHT22;7484;49.906;9.058;2023-04-28T00:32:24;12.00;99.90
14786;DHT22;7484;49.906;9.058;2023-04-28T00:34:51;11.90;99.90
14786;DHT22;7484;49.906;9.058;2023-04-28T00:37:17;11.90;99.90
14786;DHT22;7484;49.906;9.058;2023-04-28T00:39:44;11.90;99.90
14786;DHT22;7484;49.906;9.058;2023-04-28T00:42:12;11.90;99.90
14786;DHT22;7484;49.906;9.058;2023-04-28T00:44:39;11.80;99.90
14786;DHT22;7484;49.906;9.058;2023-04-28T00:47:07;11.60;99.90
14786;DHT22;7484;49.906;9.058;2023-04-28T00:49:34;11.60;99.90
14786;DHT22;7484;49.906;9.058;2023-04-28T00:52:04;11.60;99.90
14786;DHT22;7484;49.906;9.058;2023-04-28T00:54:32;11.60;99.90
14786;DHT22;7484;49.906;9.058;2023-04-28T00:56:59;11.80;99.90
14786;DHT22;7484;49.906;9.058;2023-04-28T00:59:27;11.90;99.90
14786;DHT22;7484;49.906;9.058;2023-04-28T01:01:54;12.10;99.90
14786;DHT22;7484;49.906;9.058;2023-04-28T01:04:22;12.20;99.90
14786;DHT22;7484;49.906;9.058;2023-04-28T01:06:51;12.40;99.90
14786;DHT22;7484;49.906;9.058;2023-04-28T01:09:19;12.40;99.90
14786;DHT22;7484;49.906;9.058;2023-04-28T01:11:47;12.50;99.90
14786;DHT22;7484;49.906;9.058;2023-04-28T01:14:40;12.50;99.90
14786;DHT22;7484;49.906;9.058;2023-04-28T01:17:07;12.40;99.90
14786;DHT22;7484;49.906;9.058;2023-04-28T01:19:36;12.40;99.90
14786;DHT22;7484;49.906;9.058;2023-04-28T01:22:03;12.50;99.90
14786;DHT22;7484;49.906;9.058;2023-04-28T01:24:31;12.50;99.90
14786;DHT22;7484;49.906;9.058;2023-04-28T01:27:02;12.50;99.90
14786;DHT22;7484;49.906;9.058;2023-04-28T01:29:29;12.50;99.90
14786;DHT22;7484;49.906;9.058;2023-04-28T01:31:56;12.50;99.90
14786;DHT22;7484;49.906;9.058;2023-04-28T01:34:22;12.50;99.90
14786;DHT22;7484;49.906;9.058;2023-04-28T01:36:49;12.40;99.90
14786;DHT22;7484;49.906;9.058;2023-04-28T01:39:16;12.30;99.90
14786;DHT22;7484;49.906;9.058;2023-04-28T01:41:44;12.20;99.90
14786;DHT22;7484;49.906;9.058;2023-04-28T01:44:11;12.10;99.90
14786;DHT22;7484;49.906;9.058;2023-04-28T01:46:38;12.10;99.90
14786;DHT22;7484;49.906;9.058;2023-04-28T01:49:05;12.30;99.90
14786;DHT22;7484;49.906;9.058;2023-04-28T01:51:33;12.40;99.90
14786;DHT22;7484;49.906;9.058;2023-04-28T01:54:00;12.40;99.90
14786;DHT22;7484;49.906;9.058;2023-04-28T01:56:28;12.40;99.90
14786;DHT22;7484;49.906;9.058;2023-04-28T01:58:58;12.30;99.90
14786;DHT22;7484;49.906;9.058;2023-04-28T02:01:24;12.30;99.90
14786;DHT22;7484;49.906;9.058;2023-04-28T02:03:51;12.30;99.90
14786;DHT22;7484;49.906;9.058;2023-04-28T02:06:19;12.00;99.90
14786;DHT22;7484;49.906;9.058;2023-04-28T02:08:46;11.90;99.90
14786;DHT22;7484;49.906;9.058;2023-04-28T02:11:13;11.90;99.90
14786;DHT22;7484;49.906;9.058;2023-04-28T02:13:39;12.10;99.90
14786;DHT22;7484;49.906;9.058;2023-04-28T02:16:08;12.20;99.90
14786;DHT22;7484;49.906;9.058;2023-04-28T02:18:34;12.20;99.90
14786;DHT22;7484;49.906;9.058;2023-04-28T02:21:07;11.90;99.90
14786;DHT22;7484;49.906;9.058;2023-04-28T02:23:35;11.60;99.90
14786;DHT22;7484;49.906;9.058;2023-04-28T02:26:04;11.50;99.90
14786;DHT22;7484;49.906;9.058;2023-04-28T02:28:31;11.50;99.90
14786;DHT22;7484;49.906;9.058;2023-04-28T02:31:05;11.50;99.90
14786;DHT22;7484;49.906;9.058;2023-04-28T02:33:34;11.70;99.90
14786;DHT22;7484;49.906;9.058;2023-04-28T02:36:01;11.70;99.90
14786;DHT22;7484;49.906;9.058;2023-04-28T02:38:28;11.90;99.90
14786;DHT22;7484;49.906;9.058;2023-04-28T02:40:58;11.90;99.90
14786;DHT22;7484;49.906;9.058;2023-04-28T02:43:26;11.90;99.90
14786;DHT22;7484;49.906;9.058;2023-04-28T02:45:53;11.80;99.90
14786;DHT22;7484;49.906;9.058;2023-04-28T02:48:20;11.90;99.90
14786;DHT22;7484;49.906;9.058;2023-04-28T02:50:48;11.70;99.90
14786;DHT22;7484;49.906;9.058;2023-04-28T02:53:15;11.60;99.90
14786;DHT22;7484;49.906;9.058;2023-04-28T02:55:42;11.40;99.90
14786;DHT22;7484;49.906;9.058;2023-04-28T02:58:09;11.30;99.90
14786;DHT22;7484;49.906;9.058;2023-04-28T03:00:36;11.30;99.90
14786;DHT22;7484;49.906;9.058;2023-04-28T03:03:02;11.30;99.90
14786;DHT22;7484;49.906;9.058;2023-04-28T03:05:29;11.40;99.90
14786;DHT22;7484;49.906;9.058;2023-04-28T03:07:57;11.40;99.90
14786;DHT22;7484;49.906;9.058;2023-04-28T03:10:25;11.30;99.90
14786;DHT22;7484;49.906;9.058;2023-04-28T03:12:51;11.40;99.90
14786;DHT22;7484;49.906;9.058;2023-04-28T03:15:18;11.50;99.90
14786;DHT22;7484;49.906;9.058;2023-04-28T03:17:45;11.60;99.90
14786;DHT22;7484;49.906;9.058;2023-04-28T03:20:12;11.80;99.90
14786;DHT22;7484;49.906;9.058;2023-04-28T03:22:39;11.90;99.90
14786;DHT22;7484;49.906;9.058;2023-04-28T03:25:07;12.00;99.90
14786;DHT22;7484;49.906;9.058;2023-04-28T03:27:43;12.00;99.90
14786;DHT22;7484;49.906;9.058;2023-04-28T03:30:11;11.90;99.90
14786;DHT22;7484;49.906;9.058;2023-04-28T03:32:38;11.90;99.90
14786;DHT22;7484;49.906;9.058;2023-04-28T03:35:06;11.90;99.90
14786;DHT22;7484;49.906;9.058;2023-04-28T03:37:33;11.90;99.90
14786;DHT22;7484;49.906;9.058;2023-04-28T03:40:00;11.70;99.90
14786;DHT22;7484;49.906;9.058;2023-04-28T03:42:34;11.50;99.90
14786;DHT22;7484;49.906;9.058;2023-04-28T03:45:17;11.50;99.90
14786;DHT22;7484;49.906;9.058;2023-04-28T03:47:45;11.60;99.90
14786;DHT22;7484;49.906;9.058;2023-04-28T03:50:11;11.60;99.90
14786;DHT22;7484;49.906;9.058;2023-04-28T03:52:38;11.40;99.90
14786;DHT22;7484;49.906;9.058;2023-04-28T03:55:06;11.40;99.90
14786;DHT22;7484;49.906;9.058;2023-04-28T03:57:35;11.30;99.90
14786;DHT22;7484;49.906;9.058;2023-04-28T04:00:02;11.30;99.90
14786;DHT22;7484;49.906;9.058;2023-04-28T04:02:30;11.30;99.90
14786;DHT22;7484;49.906;9.058;2023-04-28T04:04:56;11.40;99.90
14786;DHT22;7484;49.906;9.058;2023-04-28T04:07:23;11.50;99.90
14786;DHT22;7484;49.906;9.058;2023-04-28T04:09:50;11.30;99.90
14786;DHT22;7484;49.906;9.058;2023-04-28T04:12:17;11.30;99.90
14786;DHT22;7484;49.906;9.058;2023-04-28T04:14:45;11.40;99.90
14786;DHT22;7484;49.906;9.058;2023-04-28T04:17:12;11.40;99.90
14786;DHT22;7484;49.906;9.058;2023-04-28T04:19:39;11.40;99.90
14786;DHT22;7484;49.906;9.058;2023-04-28T04:22:06;11.30;99.90
14786;DHT22;7484;49.906;9.058;2023-04-28T04:24:32;11.30;99.90
14786;DHT22;7484;49.906;9.058;2023-04-28T04:26:59;11.30;99.90
14786;DHT22;7484;49.906;9.058;2023-04-28T04:29:36;11.40;99.90
14786;DHT22;7484;49.906;9.058;2023-04-28T04:32:09;11.50;99.90
14786;DHT22;7484;49.906;9.058;2023-04-28T04:34:37;11.60;99.90
14786;DHT22;7484;49.906;9.058;2023-04-28T04:37:04;11.70;99.90
14786;DHT22;7484;49.906;9.058;2023-04-28T04:39:32;11.70;99.90
14786;DHT22;7484;49.906;9.058;2023-04-28T04:41:58;11.70;99.90
14786;DHT22;7484;49.906;9.058;2023-04-28T04:44:46;11.70;99.90
14786;DHT22;7484;49.906;9.058;2023-04-28T04:47:27;11.70;99.90
14786;DHT22;7484;49.906;9.058;2023-04-28T04:49:54;11.50;99.90
14786;DHT22;7484;49.906;9.058;2023-04-28T04:52:21;11.50;99.90
14786;DHT22;7484;49.906;9.058;2023-04-28T04:54:49;11.60;99.90
14786;DHT22;7484;49.906;9.058;2023-04-28T04:57:17;11.70;99.90
14786;DHT22;7484;49.906;9.058;2023-04-28T05:00:03;11.70;99.90
14786;DHT22;7484;49.906;9.058;2023-04-28T05:02:31;11.70;99.90
14786;DHT22;7484;49.906;9.058;2023-04-28T05:04:59;11.70;99.90
14786;DHT22;7484;49.906;9.058;2023-04-28T05:07:26;11.60;99.90
14786;DHT22;7484;49.906;9.058;2023-04-28T05:09:53;11.60;99.90
14786;DHT22;7484;49.906;9.058;2023-04-28T05:12:20;11.60;99.90
14786;DHT22;7484;49.906;9.058;2023-04-28T05:14:46;11.60;99.90
14786;DHT22;7484;49.906;9.058;2023-04-28T05:17:14;11.50;99.90
14786;DHT22;7484;49.906;9.058;2023-04-28T05:19:43;11.50;99.90
14786;DHT22;7484;49.906;9.058;2023-04-28T05:22:10;11.40;99.90
14786;DHT22;7484;49.906;9.058;2023-04-28T05:24:37;11.50;99.90
14786;DHT22;7484;49.906;9.058;2023-04-28T05:27:03;11.30;99.90
14786;DHT22;7484;49.906;9.058;2023-04-28T05:29:30;11.40;99.90
14786;DHT22;7484;49.906;9.058;2023-04-28T05:31:57;11.40;99.90
14786;DHT22;7484;49.906;9.058;2023-04-28T05:34:24;11.40;99.90
14786;DHT22;7484;49.906;9.058;2023-04-28T05:36:52;11.40;99.90
14786;DHT22;7484;49.906;9.058;2023-04-28T05:39:23;11.40;99.90
14786;DHT22;7484;49.906;9.058;2023-04-28T05:41:49;11.40;99.90
14786;DHT22;7484;49.906;9.058;2023-04-28T05:44:16;11.60;99.90
14786;DHT22;7484;49.906;9.058;2023-04-28T05:46:44;11.60;99.90
14786;DHT22;7484;49.906;9.058;2023-04-28T05:49:11;11.70;99.90
14786;DHT22;7484;49.906;9.058;2023-04-28T05:51:38;11.70;99.90
14786;DHT22;7484;49.906;9.058;2023-04-28T05:54:06;11.60;99.90
14786;DHT22;7484;49.906;9.058;2023-04-28T05:56:39;11.60;99.90
14786;DHT22;7484;49.906;9.058;2023-04-28T05:59:07;11.60;99.90
14786;DHT22;7484;49.906;9.058;2023-04-28T06:01:34;11.60;99.90
14786;DHT22;7484;49.906;9.058;2023-04-28T06:04:03;11.60;99.90
14786;DHT22;7484;49.906;9.058;2023-04-28T06:06:30;11.50;99.90
14786;DHT22;7484;49.906;9.058;2023-04-28T06:08:58;11.60;99.90
14786;DHT22;7484;49.906;9.058;2023-04-28T06:11:26;11.60;99.90
14786;DHT22;7484;49.906;9.058;2023-04-28T06:13:53;11.60;99.90
14786;DHT22;7484;49.906;9.058;2023-04-28T06:16:20;11.50;99.90
14786;DHT22;7484;49.906;9.058;2023-04-28T06:18:48;11.50;99.90
14786;DHT22;7484;49.906;9.058;2023-04-28T06:21:15;11.60;99.90
14786;DHT22;7484;49.906;9.058;2023-04-28T06:23:42;11.60;99.90
14786;DHT22;7484;49.906;9.058;2023-04-28T06:26:09;11.50;99.90
14786;DHT22;7484;49.906;9.058;2023-04-28T06:28:39;11.50;99.90
14786;DHT22;7484;49.906;9.058;2023-04-28T06:31:07;11.40;99.90
14786;DHT22;7484;49.906;9.058;2023-04-28T06:33:33;11.30;99.90
14786;DHT22;7484;49.906;9.058;2023-04-28T06:36:00;11.30;99.90
14786;DHT22;7484;49.906;9.058;2023-04-28T06:38:27;11.40;99.90
14786;DHT22;7484;49.906;9.058;2023-04-28T06:40:54;11.50;99.90
14786;DHT22;7484;49.906;9.058;2023-04-28T06:43:20;11.60;99.90
14786;DHT22;7484;49.906;9.058;2023-04-28T06:46:01;11.60;99.90
14786;DHT22;7484;49.906;9.058;2023-04-28T06:48:28;11.70;99.90
14786;DHT22;7484;49.906;9.058;2023-04-28T06:50:54;11.70;99.90
14786;DHT22;7484;49.906;9.058;2023-04-28T06:53:21;11.80;99.90
14786;DHT22;7484;49.906;9.058;2023-04-28T06:55:48;11.80;99.90
14786;DHT22;7484;49.906;9.058;2023-04-28T06:58:15;11.70;99.90
14786;DHT22;7484;49.906;9.058;2023-04-28T07:00:41;11.40;99.90
14786;DHT22;7484;49.906;9.058;2023-04-28T07:03:10;11.30;99.90
14786;DHT22;7484;49.906;9.058;2023-04-28T07:05:36;11.30;99.90
14786;DHT22;7484;49.906;9.058;2023-04-28T07:08:05;11.40;99.90
14786;DHT22;7484;49.906;9.058;2023-04-28T07:10:32;11.50;99.90
14786;DHT22;7484;49.906;9.058;2023-04-28T07:12:59;11.60;99.90
14786;DHT22;7484;49.906;9.058;2023-04-28T07:15:26;11.70;99.90
14786;DHT22;7484;49.906;9.058;2023-04-28T07:17:52;11.70;99.90
14786;DHT22;7484;49.906;9.058;2023-04-28T07:20:20;11.80;99.90
14786;DHT22;7484;49.906;9.058;2023-04-28T07:22:47;11.70;99.90
14786;DHT22;7484;49.906;9.058;2023-04-28T07:25:14;11.60;99.90
14786;DHT22;7484;49.906;9.058;2023-04-28T07:27:41;11.60;99.90
14786;DHT22;7484;49.906;9.058;2023-04-28T07:30:08;11.50;99.90
14786;DHT22;7484;49.906;9.058;2023-04-28T07:32:35;11.30;99.90
14786;DHT22;7484;49.906;9.058;2023-04-28T07:35:01;11.30;99.90
14786;DHT22;7484;49.906;9.058;2023-04-28T07:37:30;11.20;99.90
14786;DHT22;7484;49.906;9.058;2023-04-28T07:39:56;11.30;99.90
14786;DHT22;7484;49.906;9.058;2023-04-28T07:42:23;11.40;99.90
14786;DHT22;7484;49.906;9.058;2023-04-28T07:44:50;11.40;99.90
14786;DHT22;7484;49.906;9.058;2023-04-28T07:47:17;11.40;99.90
14786;DHT22;7484;49.906;9.058;2023-04-28T07:49:43;11.60;99.90
14786;DHT22;7484;49.906;9.058;2023-04-28T07:52:10;11.70;99.90
14786;DHT22;7484;49.906;9.058;2023-04-28T07:54:38;11.90;99.90
14786;DHT22;7484;49.906;9.058;2023-04-28T07:57:05;12.00;99.90
14786;DHT22;7484;49.906;9.058;2023-04-28T07:59:32;11.90;99.90
14786;DHT22;7484;49.906;9.058;2023-04-28T08:01:59;11.90;99.90
14786;DHT22;7484;49.906;9.058;2023-04-28T08:04:26;11.80;99.90
14786;DHT22;7484;49.906;9.058;2023-04-28T08:06:53;11.80;99.90
14786;DHT22;7484;49.906;9.058;2023-04-28T08:09:20;11.90;99.90
14786;DHT22;7484;49.906;9.058;2023-04-28T08:11:48;12.00;99.90
14786;DHT22;7484;49.906;9.058;2023-04-28T08:14:14;12.10;99.90
14786;DHT22;7484;49.906;9.058;2023-04-28T08:16:42;12.20;99.90
14786;DHT22;7484;49.906;9.058;2023-04-28T08:19:08;12.40;99.90
14786;DHT22;7484;49.906;9.058;2023-04-28T08:21:35;12.40;99.90
14786;DHT22;7484;49.906;9.058;2023-04-28T08:24:02;12.20;99.90
14786;DHT22;7484;49.906;9.058;2023-04-28T08:26:28;12.20;99.90
14786;DHT22;7484;49.906;9.058;2023-04-28T08:28:57;12.20;99.90
14786;DHT22;7484;49.906;9.058;2023-04-28T08:31:23;12.20;99.90
14786;DHT22;7484;49.906;9.058;2023-04-28T08:33:50;12.20;99.90
14786;DHT22;7484;49.906;9.058;2023-04-28T08:36:17;12.10;99.90
14786;DHT22;7484;49.906;9.058;2023-04-28T08:38:44;11.90;99.90
14786;DHT22;7484;49.906;9.058;2023-04-28T08:41:12;11.90;99.90
14786;DHT22;7484;49.906;9.058;2023-04-28T08:43:39;11.90;99.90
14786;DHT22;7484;49.906;9.058;2023-04-28T08:46:09;11.90;99.90
14786;DHT22;7484;49.906;9.058;2023-04-28T08:48:39;11.90;99.90
14786;DHT22;7484;49.906;9.058;2023-04-28T08:51:06;11.90;99.90
14786;DHT22;7484;49.906;9.058;2023-04-28T08:53:37;11.90;99.90
14786;DHT22;7484;49.906;9.058;2023-04-28T08:56:05;11.90;99.90
14786;DHT22;7484;49.906;9.058;2023-04-28T08:58:34;12.00;99.90
14786;DHT22;7484;49.906;9.058;2023-04-28T09:01:01;12.10;99.90
14786;DHT22;7484;49.906;9.058;2023-04-28T09:03:30;12.00;99.90
14786;DHT22;7484;49.906;9.058;2023-04-28T09:05:58;12.20;99.90
14786;DHT22;7484;49.906;9.058;2023-04-28T09:08:25;12.40;99.90
14786;DHT22;7484;49.906;9.058;2023-04-28T09:11:05;12.40;99.90
14786;DHT22;7484;49.906;9.058;2023-04-28T09:13:33;12.50;99.90
14786;DHT22;7484;49.906;9.058;2023-04-28T09:16:01;12.50;99.90
14786;DHT22;7484;49.906;9.058;2023-04-28T09:18:29;12.60;99.90
14786;DHT22;7484;49.906;9.058;2023-04-28T09:21:04;12.70;99.90
14786;DHT22;7484;49.906;9.058;2023-04-28T09:23:32;12.70;99.90
14786;DHT22;7484;49.906;9.058;2023-04-28T09:26:00;12.60;99.90
14786;DHT22;7484;49.906;9.058;2023-04-28T09:28:27;12.60;99.90
14786;DHT22;7484;49.906;9.058;2023-04-28T09:30:54;12.70;99.90
14786;DHT22;7484;49.906;9.058;2023-04-28T09:33:20;12.70;99.90
14786;DHT22;7484;49.906;9.058;2023-04-28T09:35:48;12.70;99.90
14786;DHT22;7484;49.906;9.058;2023-04-28T09:38:16;12.60;99.90
14786;DHT22;7484;49.906;9.058;2023-04-28T09:40:55;12.60;99.90
14786;DHT22;7484;49.906;9.058;2023-04-28T09:43:24;12.60;99.90
14786;DHT22;7484;49.906;9.058;2023-04-28T09:45:51;12.70;99.90
14786;DHT22;7484;49.906;9.058;2023-04-28T09:48:26;12.80;99.90
14786;DHT22;7484;49.906;9.058;2023-04-28T09:50:54;12.90;99.90
14786;DHT22;7484;49.906;9.058;2023-04-28T09:53:22;13.00;99.90
14786;DHT22;7484;49.906;9.058;2023-04-28T09:55:49;13.20;99.90
14786;DHT22;7484;49.906;9.058;2023-04-28T09:58:19;13.30;99.90
14786;DHT22;7484;49.906;9.058;2023-04-28T10:00:51;13.40;99.90
14786;DHT22;7484;49.906;9.058;2023-04-28T10:03:20;13.40;99.90
14786;DHT22;7484;49.906;9.058;2023-04-28T10:05:47;13.50;99.90
14786;DHT22;7484;49.906;9.058;2023-04-28T10:08:17;13.60;99.90
14786;DHT22;7484;49.906;9.058;2023-04-28T10:10:44;13.60;99.90
14786;DHT22;7484;49.906;9.058;2023-04-28T10:13:14;13.70;99.90
14786;DHT22;7484;49.906;9.058;2023-04-28T10:15:42;13.70;99.90
14786;DHT22;7484;49.906;9.058;2023-04-28T10:18:10;13.80;99.90
14786;DHT22;7484;49.906;9.058;2023-04-28T10:20:38;13.90;99.90
14786;DHT22;7484;49.906;9.058;2023-04-28T10:23:22;14.00;99.90
14786;DHT22;7484;49.906;9.058;2023-04-28T10:25:55;14.20;99.90
14786;DHT22;7484;49.906;9.058;2023-04-28T10:28:24;14.20;99.90
14786;DHT22;7484;49.906;9.058;2023-04-28T10:31:10;14.30;99.90
14786;DHT22;7484;49.906;9.058;2023-04-28T10:33:37;14.40;99.90
14786;DHT22;7484;49.906;9.058;2023-04-28T10:36:05;14.30;99.90
14786;DHT22;7484;49.906;9.058;2023-04-28T10:38:34;14.30;99.90
14786;DHT22;7484;49.906;9.058;2023-04-28T10:41:01;14.30;99.90
14786;DHT22;7484;49.906;9.058;2023-04-28T10:43:35;14.40;99.90
14786;DHT22;7484;49.906;9.058;2023-04-28T10:46:05;14.50;99.90
14786;DHT22;7484;49.906;9.058;2023-04-28T10:48:55;14.70;99.90
14786;DHT22;7484;49.906;9.058;2023-04-28T10:51:34;14.90;99.90
14786;DHT22;7484;49.906;9.058;2023-04-28T10:54:18;15.00;99.90
14786;DHT22;7484;49.906;9.058;2023-04-28T10:57:14;15.10;99.90
14786;DHT22;7484;49.906;9.058;2023-04-28T10:59:41;15.10;99.90
14786;DHT22;7484;49.906;9.058;2023-04-28T11:02:36;15.00;99.90
14786;DHT22;7484;49.906;9.058;2023-04-28T11:05:14;15.10;99.90
14786;DHT22;7484;49.906;9.058;2023-04-28T11:11:12;15.00;99.90
14786;DHT22;7484;49.906;9.058;2023-04-28T11:13:39;14.90;99.90
14786;DHT22;7484;49.906;9.058;2023-04-28T11:16:06;15.00;99.90
14786;DHT22;7484;49.906;9.058;2023-04-28T11:18:47;15.00;99.90
14786;DHT22;7484;49.906;9.058;2023-04-28T11:21:14;15.10;99.90
14786;DHT22;7484;49.906;9.058;2023-04-28T11:23:41;15.10;99.90
14786;DHT22;7484;49.906;9.058;2023-04-28T11:26:08;15.10;99.90
14786;DHT22;7484;49.906;9.058;2023-04-28T11:28:46;15.20;99.90
14786;DHT22;7484;49.906;9.058;2023-04-28T11:31:13;15.20;99.90
14786;DHT22;7484;49.906;9.058;2023-04-28T11:33:45;15.20;99.90
14786;DHT22;7484;49.906;9.058;2023-04-28T11:36:25;15.30;99.90
14786;DHT22;7484;49.906;9.058;2023-04-28T11:38:52;15.40;99.90
14786;DHT22;7484;49.906;9.058;2023-04-28T11:41:19;15.30;99.90
14786;DHT22;7484;49.906;9.058;2023-04-28T11:43:47;15.30;99.90
14786;DHT22;7484;49.906;9.058;2023-04-28T11:46:18;15.20;99.90
14786;DHT22;7484;49.906;9.058;2023-04-28T11:48:46;15.30;99.90
14786;DHT22;7484;49.906;9.058;2023-04-28T11:51:29;15.40;99.90
14786;DHT22;7484;49.906;9.058;2023-04-28T11:53:56;15.40;99.90
14786;DHT22;7484;49.906;9.058;2023-04-28T11:56:24;15.50;99.90
14786;DHT22;7484;49.906;9.058;2023-04-28T11:59:02;15.50;99.90
14786;DHT22;7484;49.906;9.058;2023-04-28T12:01:31;15.60;99.90
14786;DHT22;7484;49.906;9.058;2023-04-28T12:03:58;15.70;99.90
14786;DHT22;7484;49.906;9.058;2023-04-28T12:06:25;15.80;99.90
14786;DHT22;7484;49.906;9.058;2023-04-28T12:08:52;16.00;99.90
14786;DHT22;7484;49.906;9.058;2023-04-28T12:11:19;16.10;99.90
14786;DHT22;7484;49.906;9.058;2023-04-28T12:14:04;16.10;99.90
14786;DHT22;7484;49.906;9.058;2023-04-28T12:16:41;16.10;99.90
14786;DHT22;7484;49.906;9.058;2023-04-28T12:19:12;16.10;99.90
14786;DHT22;7484;49.906;9.058;2023-04-28T12:21:40;16.10;99.90
14786;DHT22;7484;49.906;9.058;2023-04-28T12:24:17;16.20;99.90
14786;DHT22;7484;49.906;9.058;2023-04-28T12:26:44;16.30;99.90
14786;DHT22;7484;49.906;9.058;2023-04-28T12:29:37;16.20;99.90
14786;DHT22;7484;49.906;9.058;2023-04-28T12:32:05;16.20;99.90
14786;DHT22;7484;49.906;9.058;2023-04-28T12:34:33;16.20;99.90
14786;DHT22;7484;49.906;9.058;2023-04-28T12:37:01;16.20;99.90
14786;DHT22;7484;49.906;9.058;2023-04-28T12:39:30;16.30;99.90
14786;DHT22;7484;49.906;9.058;2023-04-28T12:41:57;16.20;99.90
14786;DHT22;7484;49.906;9.058;2023-04-28T12:44:24;16.20;99.90
14786;DHT22;7484;49.906;9.058;2023-04-28T12:46:53;16.10;99.90
14786;DHT22;7484;49.906;9.058;2023-04-28T12:49:21;16.10;99.90
14786;DHT22;7484;49.906;9.058;2023-04-28T12:51:48;16.10;99.90
14786;DHT22;7484;49.906;9.058;2023-04-28T12:54:14;16.10;99.90
14786;DHT22;7484;49.906;9.058;2023-04-28T12:56:41;16.20;99.90
14786;DHT22;7484;49.906;9.058;2023-04-28T12:59:08;16.40;99.90
14786;DHT22;7484;49.906;9.058;2023-04-28T13:01:35;16.30;99.90
14786;DHT22;7484;49.906;9.058;2023-04-28T13:04:04;16.20;99.90
14786;DHT22;7484;49.906;9.058;2023-04-28T13:06:35;16.50;99.90
14786;DHT22;7484;49.906;9.058;2023-04-28T13:09:03;16.70;99.90
14786;DHT22;7484;49.906;9.058;2023-04-28T13:11:31;16.90;99.90
14786;DHT22;7484;49.906;9.058;2023-04-28T13:13:58;17.30;99.90
14786;DHT22;7484;49.906;9.058;2023-04-28T13:16:27;17.30;99.90
14786;DHT22;7484;49.906;9.058;2023-04-28T13:18:57;17.30;99.90
14786;DHT22;7484;49.906;9.058;2023-04-28T13:21:26;17.60;99.90
14786;DHT22;7484;49.906;9.058;2023-04-28T13:23:53;18.20;99.90
14786;DHT22;7484;49.906;9.058;2023-04-28T13:26:20;18.30;99.90
14786;DHT22;7484;49.906;9.058;2023-04-28T13:28:49;18.30;99.90
14786;DHT22;7484;49.906;9.058;2023-04-28T13:31:16;18.50;99.90
14786;DHT22;7484;49.906;9.058;2023-04-28T13:33:43;18.50;99.90
14786;DHT22;7484;49.906;9.058;2023-04-28T13:36:09;18.50;99.90
14786;DHT22;7484;49.906;9.058;2023-04-28T13:38:38;18.70;99.90
14786;DHT22;7484;49.906;9.058;2023-04-28T13:41:05;18.80;99.90
14786;DHT22;7484;49.906;9.058;2023-04-28T13:43:32;18.80;99.90
14786;DHT22;7484;49.906;9.058;2023-04-28T13:45:58;18.80;99.90
14786;DHT22;7484;49.906;9.058;2023-04-28T13:48:25;18.80;99.90
14786;DHT22;7484;49.906;9.058;2023-04-28T13:50:52;18.80;99.90
14786;DHT22;7484;49.906;9.058;2023-04-28T13:53:19;18.90;99.90
14786;DHT22;7484;49.906;9.058;2023-04-28T13:55:49;19.20;99.90
14786;DHT22;7484;49.906;9.058;2023-04-28T13:58:18;19.20;99.90
14786;DHT22;7484;49.906;9.058;2023-04-28T14:00:45;19.60;99.90
14786;DHT22;7484;49.906;9.058;2023-04-28T14:03:11;19.50;99.90
14786;DHT22;7484;49.906;9.058;2023-04-28T14:05:38;19.00;99.90
14786;DHT22;7484;49.906;9.058;2023-04-28T14:08:05;18.70;99.90
14786;DHT22;7484;49.906;9.058;2023-04-28T14:10:32;18.60;99.90
14786;DHT22;7484;49.906;9.058;2023-04-28T14:13:00;18.60;99.90
14786;DHT22;7484;49.906;9.058;2023-04-28T14:15:27;18.70;99.90
14786;DHT22;7484;49.906;9.058;2023-04-28T14:17:54;18.70;99.90
14786;DHT22;7484;49.906;9.058;2023-04-28T14:20:21;18.70;99.90
14786;DHT22;7484;49.906;9.058;2023-04-28T14:22:47;18.70;99.90
14786;DHT22;7484;49.906;9.058;2023-04-28T14:25:15;18.60;99.90
14786;DHT22;7484;49.906;9.058;2023-04-28T14:27:42;18.60;99.90
14786;DHT22;7484;49.906;9.058;2023-04-28T14:30:11;18.70;99.90
14786;DHT22;7484;49.906;9.058;2023-04-28T14:32:38;18.70;99.90
14786;DHT22;7484;49.906;9.058;2023-04-28T14:35:05;18.70;99.90
14786;DHT22;7484;49.906;9.058;2023-04-28T14:37:32;18.80;99.90
14786;DHT22;7484;49.906;9.058;2023-04-28T14:39:59;18.70;99.90
14786;DHT22;7484;49.906;9.058;2023-04-28T14:42:28;18.80;99.90
14786;DHT22;7484;49.906;9.058;2023-04-28T14:44:56;19.10;99.90
14786;DHT22;7484;49.906;9.058;2023-04-28T14:47:24;19.20;99.90
14786;DHT22;7484;49.906;9.058;2023-04-28T14:49:52;19.90;99.90
14786;DHT22;7484;49.906;9.058;2023-04-28T14:52:20;20.00;99.90
14786;DHT22;7484;49.906;9.058;2023-04-28T14:54:49;20.00;99.90
14786;DHT22;7484;49.906;9.058;2023-04-28T14:57:17;20.00;99.90
14786;DHT22;7484;49.906;9.058;2023-04-28T14:59:46;19.80;99.90
14786;DHT22;7484;49.906;9.058;2023-04-28T15:02:15;19.50;99.90
14786;DHT22;7484;49.906;9.058;2023-04-28T15:04:44;19.50;99.90
14786;DHT22;7484;49.906;9.058;2023-04-28T15:07:12;19.50;99.90
14786;DHT22;7484;49.906;9.058;2023-04-28T15:09:41;19.40;99.90
14786;DHT22;7484;49.906;9.058;2023-04-28T15:12:09;19.40;99.90
14786;DHT22;7484;49.906;9.058;2023-04-28T15:14:37;19.40;99.90
14786;DHT22;7484;49.906;9.058;2023-04-28T15:17:06;19.40;99.90
14786;DHT22;7484;49.906;9.058;2023-04-28T15:19:35;19.40;99.90
14786;DHT22;7484;49.906;9.058;2023-04-28T15:22:05;19.20;99.90
14786;DHT22;7484;49.906;9.058;2023-04-28T15:24:34;19.30;99.90
14786;DHT22;7484;49.906;9.058;2023-04-28T15:27:04;19.40;99.90
14786;DHT22;7484;49.906;9.058;2023-04-28T15:29:32;19.50;99.90
14786;DHT22;7484;49.906;9.058;2023-04-28T15:32:00;19.50;99.90
14786;DHT22;7484;49.906;9.058;2023-04-28T15:34:29;19.40;99.90
14786;DHT22;7484;49.906;9.058;2023-04-28T15:36:57;19.10;99.90
14786;DHT22;7484;49.906;9.058;2023-04-28T15:39:27;19.00;99.90
14786;DHT22;7484;49.906;9.058;2023-04-28T15:41:55;19.10;99.90
14786;DHT22;7484;49.906;9.058;2023-04-28T15:44:23;19.50;99.90
14786;DHT22;7484;49.906;9.058;2023-04-28T15:46:50;20.00;99.90
14786;DHT22;7484;49.906;9.058;2023-04-28T15:49:17;20.50;99.90
14786;DHT22;7484;49.906;9.058;2023-04-28T15:51:44;21.00;99.90
14786;DHT22;7484;49.906;9.058;2023-04-28T15:54:12;20.90;99.90
14786;DHT22;7484;49.906;9.058;2023-04-28T15:56:42;20.90;99.90